createdAt,value
2019-02-25T00:01:21.716Z,103230.00
2019-02-25T00:03:52.103Z,103226.00
2019-02-25T00:06:22.474Z,103227.00
2019-02-25T00:08:52.868Z,103225.00
2019-02-25T00:11:23.242Z,103232.00
2019-02-25T00:13:53.751Z,103235.00
2019-02-25T00:16:24.189Z,103227.00
2019-02-25T00:18:54.570Z,103221.00
2019-02-25T00:21:24.939Z,103210.00
2019-02-25T00:23:55.322Z,103209.00
2019-02-25T00:26:25.687Z,103208.00
2019-02-25T00:28:56.080Z,103217.00
2019-02-25T00:31:26.449Z,103214.00
2019-02-25T00:33:56.828Z,103196.00
2019-02-25T00:36:27.201Z,103203.00
2019-02-25T00:38:57.590Z,103201.00
2019-02-25T00:41:27.960Z,103200.00
2019-02-25T00:43:58.349Z,103193.00
2019-02-25T00:46:28.757Z,103203.00
2019-02-25T00:48:59.137Z,103205.00
2019-02-25T00:51:29.596Z,103189.00
2019-02-25T00:53:59.982Z,103188.00
2019-02-25T00:56:30.351Z,103198.00
2019-02-25T00:59:00.745Z,103197.00
2019-02-25T01:01:31.109Z,103188.00
2019-02-25T01:04:01.508Z,103206.00
2019-02-25T01:06:31.882Z,103208.00
2019-02-25T01:09:14.215Z,103217.00
2019-02-25T01:11:44.584Z,103198.00
2019-02-25T01:14:14.972Z,103202.00
2019-02-25T01:16:45.332Z,103199.00
2019-02-25T01:19:15.727Z,103192.00
2019-02-25T01:21:46.096Z,103199.00
2019-02-25T01:24:16.482Z,103191.00
2019-02-25T01:26:46.846Z,103180.00
2019-02-25T01:29:17.237Z,103189.00
2019-02-25T01:31:47.611Z,103194.00
2019-02-25T01:34:17.998Z,103191.00
2019-02-25T01:36:48.379Z,103193.00
2019-02-25T01:39:18.754Z,103189.00
2019-02-25T01:41:49.138Z,103187.00
2019-02-25T01:44:19.527Z,103184.00
2019-02-25T01:46:49.903Z,103181.00
2019-02-25T01:49:20.294Z,103181.00
2019-02-25T01:51:50.670Z,103173.00
2019-02-25T01:54:21.128Z,103176.00
2019-02-25T01:56:51.490Z,103179.00
2019-02-25T01:59:21.883Z,103172.00
2019-02-25T02:01:52.239Z,103177.00
2019-02-25T02:04:22.624Z,103175.00
2019-02-25T02:06:52.989Z,103169.00
2019-02-25T02:09:23.378Z,103177.00
2019-02-25T02:11:53.749Z,103170.00
2019-02-25T02:14:24.140Z,103172.00
2019-02-25T02:16:54.516Z,103162.00
2019-02-25T02:19:24.919Z,103168.00
2019-02-25T02:21:55.280Z,103185.00
2019-02-25T02:24:25.666Z,103180.00
2019-02-25T02:26:56.034Z,103177.00
2019-02-25T02:29:26.432Z,103172.00
2019-02-25T02:31:56.809Z,103163.00
2019-02-25T02:34:27.196Z,103164.00
2019-02-25T02:36:57.569Z,103158.00
2019-02-25T02:39:27.964Z,103158.00
2019-02-25T02:42:35.648Z,103162.00
2019-02-25T02:45:13.814Z,103141.00
2019-02-25T02:47:57.565Z,103141.00
2019-02-25T02:50:27.954Z,103146.00
2019-02-25T02:52:58.333Z,103141.00
2019-02-25T02:55:28.799Z,103141.00
2019-02-25T02:57:59.164Z,103138.00
2019-02-25T03:00:29.633Z,103142.00
2019-02-25T03:03:00.003Z,103120.00
2019-02-25T03:05:30.402Z,103128.00
2019-02-25T03:08:00.769Z,103136.00
2019-02-25T03:10:32.235Z,103131.00
2019-02-25T03:13:02.723Z,103121.00
2019-02-25T03:15:33.060Z,103128.00
2019-02-25T03:18:03.431Z,103138.00
2019-02-25T03:20:33.820Z,103142.00
2019-02-25T03:23:04.195Z,103144.00
2019-02-25T03:25:34.593Z,103140.00
2019-02-25T03:28:04.974Z,103139.00
2019-02-25T03:30:35.375Z,103146.00
2019-02-25T03:33:05.751Z,103155.00
2019-02-25T03:35:36.241Z,103159.00
2019-02-25T03:38:06.618Z,103146.00
2019-02-25T03:40:37.005Z,103151.00
2019-02-25T03:43:07.370Z,103142.00
2019-02-25T03:45:37.756Z,103142.00
2019-02-25T03:48:08.133Z,103144.00
2019-02-25T03:50:38.526Z,103155.00
2019-02-25T03:53:08.896Z,103154.00
2019-02-25T03:55:39.290Z,103156.00
2019-02-25T03:58:09.659Z,103153.00
2019-02-25T04:00:40.044Z,103146.00
2019-02-25T04:03:10.420Z,103140.00
2019-02-25T04:05:40.836Z,103144.00
2019-02-25T04:08:11.260Z,103141.00
2019-02-25T04:10:41.659Z,103137.00
2019-02-25T04:13:12.027Z,103135.00
2019-02-25T04:15:43.796Z,103138.00
2019-02-25T04:18:14.186Z,103137.00
2019-02-25T04:20:44.568Z,103134.00
2019-02-25T04:23:14.938Z,103134.00
2019-02-25T04:25:45.341Z,103139.00
2019-02-25T04:28:15.702Z,103129.00
2019-02-25T04:30:46.095Z,103127.00
2019-02-25T04:33:16.472Z,103126.00
2019-02-25T04:35:46.863Z,103123.00
2019-02-25T04:38:17.242Z,103121.00
2019-02-25T04:40:47.730Z,103122.00
2019-02-25T04:43:18.100Z,103118.00
2019-02-25T04:45:48.492Z,103128.00
2019-02-25T04:48:18.861Z,103137.00
2019-02-25T04:50:49.313Z,103130.00
2019-02-25T04:53:19.681Z,103125.00
2019-02-25T04:55:50.076Z,103140.00
2019-02-25T04:58:20.446Z,103154.00
2019-02-25T05:00:50.844Z,103158.00
2019-02-25T05:03:21.218Z,103147.00
2019-02-25T05:05:51.604Z,103143.00
2019-02-25T05:08:21.977Z,103167.00
2019-02-25T05:10:52.373Z,103164.00
2019-02-25T05:13:22.735Z,103159.00
2019-02-25T05:15:53.162Z,103151.00
2019-02-25T05:18:23.537Z,103158.00
2019-02-25T05:20:54.035Z,103159.00
2019-02-25T05:23:24.393Z,103157.00
2019-02-25T05:25:54.782Z,103147.00
2019-02-25T05:28:25.147Z,103159.00
2019-02-25T05:30:55.598Z,103161.00
2019-02-25T05:33:25.967Z,103170.00
2019-02-25T05:35:56.359Z,103174.00
2019-02-25T05:38:26.734Z,103176.00
2019-02-25T05:40:57.134Z,103172.00
2019-02-25T05:43:27.499Z,103179.00
2019-02-25T05:45:57.889Z,103181.00
2019-02-25T05:48:28.288Z,103187.00
2019-02-25T05:50:58.674Z,103187.00
2019-02-25T05:53:29.041Z,103179.00
2019-02-25T05:55:59.440Z,103185.00
2019-02-25T05:58:29.818Z,103173.00
2019-02-25T06:01:00.209Z,103179.00
2019-02-25T06:03:30.576Z,103177.00
2019-02-25T06:06:00.972Z,103174.00
2019-02-25T06:08:31.344Z,103175.00
2019-02-25T06:11:01.735Z,103178.00
2019-02-25T06:13:32.103Z,103177.00
2019-02-25T06:16:02.485Z,103176.00
2019-02-25T06:18:32.858Z,103176.00
2019-02-25T06:21:03.239Z,103185.00
2019-02-25T06:23:33.616Z,103180.00
2019-02-25T06:26:04.011Z,103185.00
2019-02-25T06:28:34.377Z,103189.00
2019-02-25T06:31:07.448Z,103178.00
2019-02-25T06:33:38.107Z,103176.00
2019-02-25T06:36:08.505Z,103181.00
2019-02-25T06:38:38.867Z,103179.00
2019-02-25T06:41:09.338Z,103185.00
2019-02-25T06:43:39.710Z,103185.00
2019-02-25T06:46:10.165Z,103182.00
2019-02-25T06:48:40.526Z,103183.00
2019-02-25T06:51:10.915Z,103202.00
2019-02-25T06:53:41.326Z,103195.00
2019-02-25T06:56:11.721Z,103195.00
2019-02-25T06:58:42.081Z,103195.00
2019-02-25T07:01:12.603Z,103204.00
2019-02-25T07:03:43.757Z,103197.00
2019-02-25T07:06:18.646Z,103205.00
2019-02-25T07:08:50.648Z,103208.00
2019-02-25T07:11:25.411Z,103212.00
2019-02-25T07:13:57.406Z,103215.00
2019-02-25T07:16:32.100Z,103220.00
2019-02-25T07:19:15.447Z,103220.00
2019-02-25T07:21:53.412Z,103221.00
2019-02-25T07:24:25.492Z,103219.00
2019-02-25T07:27:00.573Z,103228.00
2019-02-25T07:29:38.314Z,103221.00
2019-02-25T07:32:10.342Z,103225.00
2019-02-25T07:34:45.030Z,103222.00
2019-02-25T07:37:19.793Z,103224.00
2019-02-25T07:39:51.804Z,103216.00
2019-02-25T07:42:36.098Z,103229.00
2019-02-25T07:45:15.371Z,103229.00
2019-02-25T07:47:47.855Z,103228.00
2019-02-25T07:50:25.979Z,103223.00
2019-02-25T07:53:03.754Z,103224.00
2019-02-25T07:55:44.497Z,103221.00
2019-02-25T07:58:22.301Z,103230.00
2019-02-25T08:00:54.286Z,103238.00
2019-02-25T08:03:31.746Z,103240.00
2019-02-25T08:06:18.830Z,103244.00
2019-02-25T08:08:56.784Z,103242.00
2019-02-25T08:14:29.019Z,103253.00
2019-02-25T08:17:17.434Z,103243.00
2019-02-25T08:19:52.151Z,103242.00
2019-02-25T08:22:32.804Z,103239.00
2019-02-25T08:25:04.813Z,103233.00
2019-02-25T08:27:45.806Z,103232.00
2019-02-25T08:30:34.052Z,103230.00
2019-02-25T08:33:06.141Z,103229.00
2019-02-25T08:36:06.636Z,103224.00
2019-02-25T08:38:42.117Z,103222.00
2019-02-25T08:41:24.169Z,103221.00
2019-02-25T08:43:59.099Z,103220.00
2019-02-25T08:46:50.464Z,103214.00
2019-02-25T08:49:25.851Z,103206.00
2019-02-25T08:51:56.251Z,103214.00
2019-02-25T08:54:26.618Z,103219.00
2019-02-25T08:56:57.013Z,103220.00
2019-02-25T08:59:39.543Z,103232.00
2019-02-25T09:02:09.937Z,103242.00
2019-02-25T09:04:40.321Z,103239.00
2019-02-25T09:07:10.712Z,103238.00
2019-02-25T09:09:41.078Z,103244.00
2019-02-25T09:12:11.476Z,103239.00
2019-02-25T09:14:41.849Z,103247.00
2019-02-25T09:17:12.283Z,103239.00
2019-02-25T09:19:42.754Z,103248.00
2019-02-25T09:22:13.144Z,103255.00
2019-02-25T09:24:43.523Z,103259.00
2019-02-25T09:27:13.943Z,103258.00
2019-02-25T09:29:45.041Z,103263.00
2019-02-25T09:32:15.492Z,103264.00
2019-02-25T09:34:47.220Z,103267.00
2019-02-25T09:37:17.662Z,103263.00
2019-02-25T09:39:48.012Z,103264.00
2019-02-25T09:42:18.437Z,103264.00
2019-02-25T09:44:48.827Z,103259.00
2019-02-25T09:47:19.217Z,103254.00
2019-02-25T09:49:51.100Z,103253.00
2019-02-25T09:52:21.555Z,103257.00
2019-02-25T09:54:51.925Z,103248.00
2019-02-25T09:57:22.317Z,103254.00
2019-02-25T09:59:52.680Z,103250.00
2019-02-25T10:02:24.769Z,103245.00
2019-02-25T10:04:55.324Z,103248.00
2019-02-25T10:07:25.804Z,103243.00
2019-02-25T10:09:56.245Z,103234.00
2019-02-25T10:12:26.628Z,103229.00
2019-02-25T10:14:57.006Z,103224.00
2019-02-25T10:17:27.389Z,103213.00
2019-02-25T10:19:57.759Z,103206.00
2019-02-25T10:22:28.144Z,103204.00
2019-02-25T10:24:58.641Z,103197.00
2019-02-25T10:27:29.035Z,103202.00
2019-02-25T10:29:59.432Z,103205.00
2019-02-25T10:32:30.244Z,103202.00
2019-02-25T10:35:00.674Z,103214.00
2019-02-25T10:37:32.310Z,103214.00
2019-02-25T10:40:02.688Z,103207.00
2019-02-25T10:42:33.966Z,103197.00
2019-02-25T10:45:13.490Z,103198.00
2019-02-25T10:47:44.729Z,103200.00
2019-02-25T10:50:16.138Z,103198.00
2019-02-25T10:52:48.943Z,103199.00
2019-02-25T10:55:45.063Z,103193.00
2019-02-25T10:58:13.573Z,103195.00
2019-02-25T11:00:47.857Z,103196.00
2019-02-25T11:03:20.022Z,103184.00
2019-02-25T11:05:51.753Z,103186.00
2019-02-25T11:08:22.665Z,103181.00
2019-02-25T11:11:03.404Z,103189.00
2019-02-25T11:13:34.668Z,103187.00
2019-02-25T11:16:05.919Z,103175.00
2019-02-25T11:18:36.578Z,103179.00
2019-02-25T11:21:08.882Z,103169.00
2019-02-25T11:23:39.108Z,103167.00
2019-02-25T11:26:09.461Z,103160.00
2019-02-25T11:28:41.252Z,103167.00
2019-02-25T11:31:12.314Z,103163.00
2019-02-25T11:33:42.699Z,103161.00
2019-02-25T11:36:14.907Z,103159.00
2019-02-25T11:38:45.147Z,103162.00
2019-02-25T11:41:15.522Z,103169.00
2019-02-25T11:43:48.103Z,103165.00
2019-02-25T11:46:18.002Z,103171.00
2019-02-25T11:48:48.462Z,103164.00
2019-02-25T11:51:18.826Z,103168.00
2019-02-25T11:53:50.196Z,103169.00
2019-02-25T11:56:20.600Z,103170.00
2019-02-25T11:58:50.996Z,103159.00
2019-02-25T12:01:26.693Z,103154.00
2019-02-25T13:32:06.880Z,103020.00
2019-02-25T13:34:37.341Z,103008.00
2019-02-25T13:37:09.452Z,103015.00
2019-02-25T13:39:39.811Z,103017.00
2019-02-25T13:42:10.189Z,103013.00
2019-02-25T13:44:40.573Z,103022.00
2019-02-25T13:47:10.951Z,103030.00
2019-02-25T13:49:41.581Z,103020.00
2019-02-25T13:52:12.212Z,103019.00
2019-02-25T13:54:42.594Z,103027.00
2019-02-25T13:57:12.987Z,103034.00
2019-02-25T13:59:43.360Z,103034.00
2019-02-25T14:02:14.728Z,103034.00
2019-02-25T14:04:45.482Z,103032.00
2019-02-25T14:07:15.978Z,103021.00
2019-02-25T14:09:49.366Z,103026.00
2019-02-25T14:12:22.801Z,103016.00
2019-02-25T14:14:53.222Z,103009.00
2019-02-25T14:17:23.598Z,103008.00
2019-02-25T14:19:54.355Z,103001.00
2019-02-25T14:22:24.790Z,102996.00
2019-02-25T14:24:55.168Z,102994.00
2019-02-25T14:27:27.156Z,102993.00
2019-02-25T14:29:57.782Z,102986.00
2019-02-25T14:32:30.017Z,102992.00
2019-02-25T14:35:00.420Z,102987.00
2019-02-25T14:37:30.900Z,102977.00
2019-02-25T14:40:03.582Z,102979.00
2019-02-25T14:42:36.349Z,102975.00
2019-02-25T14:45:10.668Z,102980.00
2019-02-25T14:47:42.088Z,102964.00
2019-02-25T14:50:21.636Z,102968.00
2019-02-25T14:52:52.433Z,102961.00
2019-02-25T14:55:22.817Z,102968.00
2019-02-25T14:57:55.072Z,102960.00
2019-02-25T15:00:31.861Z,102952.00
2019-02-25T15:03:00.954Z,102948.00
2019-02-25T15:05:31.340Z,102960.00
2019-02-25T15:08:01.890Z,102955.00
2019-02-25T15:10:33.945Z,102971.00
2019-02-25T15:13:06.088Z,102960.00
2019-02-25T15:15:37.092Z,102963.00
2019-02-25T15:18:08.833Z,102960.00
2019-02-25T15:20:39.390Z,102959.00
2019-02-25T15:23:12.461Z,102951.00
2019-02-25T15:25:43.203Z,102954.00
2019-02-25T15:28:16.001Z,102954.00
2019-02-25T15:30:46.429Z,102953.00
2019-02-25T15:33:16.803Z,102954.00
2019-02-25T15:35:47.273Z,102960.00
2019-02-25T15:38:17.646Z,102961.00
2019-02-25T15:40:48.104Z,102948.00
2019-02-25T15:43:20.739Z,102945.00
2019-02-25T15:45:50.865Z,102953.00
2019-02-25T15:48:22.793Z,102963.00
2019-02-25T15:51:12.711Z,102967.00
2019-02-25T15:53:46.237Z,102971.00
2019-02-25T15:56:15.606Z,102965.00
2019-02-25T15:58:47.282Z,102963.00
2019-02-25T16:01:18.852Z,102961.00
2019-02-25T16:03:49.223Z,102960.00
2019-02-25T16:06:20.152Z,102956.00
2019-02-25T16:08:54.322Z,102955.00
2019-02-25T16:11:25.615Z,102960.00
2019-02-25T16:13:57.920Z,102952.00
2019-02-25T16:16:29.309Z,102947.00
2019-02-25T16:18:59.674Z,102946.00
2019-02-25T16:21:30.890Z,102956.00
2019-02-25T16:24:02.039Z,102948.00
2019-02-25T16:26:34.277Z,102947.00
2019-02-25T16:29:07.253Z,102948.00
2019-02-25T16:31:37.875Z,102948.00
2019-02-25T16:34:09.871Z,102939.00
2019-02-25T16:36:40.746Z,102937.00
2019-02-25T16:39:11.400Z,102930.00
2019-02-25T16:41:43.552Z,102933.00
2019-02-25T16:44:15.002Z,102936.00
2019-02-25T16:46:46.729Z,102939.00
2019-02-25T16:49:17.431Z,102929.00
2019-02-25T16:51:47.866Z,102928.00
2019-02-25T16:54:20.604Z,102930.00
2019-02-25T16:56:50.427Z,102938.00
2019-02-25T16:59:23.023Z,102933.00
2019-02-25T17:01:55.869Z,102934.00
2019-02-25T17:04:27.750Z,102942.00
2019-02-25T17:07:00.149Z,102946.00
2019-02-25T17:09:33.745Z,102946.00
2019-02-25T17:12:05.115Z,102939.00
2019-02-25T17:14:40.064Z,102944.00
2019-02-25T17:17:08.392Z,102948.00
2019-02-25T17:19:38.766Z,102944.00
2019-02-25T17:22:09.130Z,102949.00
2019-02-25T17:24:39.487Z,102947.00
2019-02-25T17:27:11.849Z,102959.00
2019-02-25T17:29:42.079Z,102956.00
2019-02-25T17:32:14.452Z,102943.00
2019-02-25T17:34:44.667Z,102954.00
2019-02-25T17:37:16.662Z,102956.00
2019-02-25T17:39:47.133Z,102954.00
2019-02-25T17:42:20.168Z,102957.00
2019-02-25T17:44:53.454Z,102951.00
2019-02-25T17:47:24.503Z,102948.00
2019-02-25T17:49:56.070Z,102957.00
2019-02-25T17:52:27.137Z,102950.00
2019-02-25T17:54:57.497Z,102957.00
2019-02-25T17:57:29.472Z,102965.00
2019-02-25T18:00:00.226Z,102963.00
2019-02-25T18:02:33.380Z,102961.00
2019-02-25T18:05:04.065Z,102955.00
2019-02-25T18:07:35.872Z,102942.00
2019-02-25T18:10:12.650Z,102941.00
2019-02-25T18:12:43.215Z,102937.00
2019-02-25T18:15:30.628Z,102940.00
2019-02-25T18:18:07.354Z,102926.00
2019-02-25T18:20:38.921Z,102937.00
2019-02-25T18:23:09.633Z,102930.00
2019-02-25T18:25:40.262Z,102929.00
2019-02-25T18:28:12.670Z,102925.00
2019-02-25T18:30:43.364Z,102925.00
2019-02-25T18:33:17.395Z,102923.00
2019-02-25T18:35:48.307Z,102934.00
2019-02-25T18:38:18.831Z,102917.00
2019-02-25T18:40:49.358Z,102926.00
2019-02-25T18:43:22.143Z,102926.00
2019-02-25T18:45:52.991Z,102922.00
2019-02-25T18:48:24.906Z,102928.00
2019-02-25T18:50:57.928Z,102916.00
2019-02-25T18:53:27.924Z,102910.00
2019-02-25T18:55:58.352Z,102914.00
2019-02-25T18:58:28.717Z,102913.00
2019-02-25T19:00:59.074Z,102912.00
2019-02-25T19:03:31.232Z,102914.00
2019-02-25T19:06:01.745Z,102913.00
2019-02-25T19:08:32.212Z,102918.00
2019-02-25T19:11:02.735Z,102927.00
2019-02-25T19:13:33.104Z,102925.00
2019-02-25T19:16:03.530Z,102926.00
2019-02-25T19:18:34.696Z,102927.00
2019-02-25T19:21:06.634Z,102928.00
2019-02-25T19:23:39.484Z,102910.00
2019-02-25T19:26:12.405Z,102916.00
2019-02-25T19:28:45.933Z,102927.00
2019-02-25T19:31:14.564Z,102916.00
2019-02-25T19:33:45.101Z,102920.00
2019-02-25T19:36:15.466Z,102915.00
2019-02-25T19:38:48.059Z,102905.00
2019-02-25T19:41:20.034Z,102916.00
2019-02-25T19:43:58.961Z,102906.00
2019-02-25T19:46:22.554Z,102916.00
2019-02-25T19:48:54.167Z,102916.00
2019-02-25T19:51:25.821Z,102919.00
2019-02-25T19:53:57.231Z,102925.00
2019-02-25T19:56:27.595Z,102917.00
2019-02-25T19:58:58.078Z,102917.00
2019-02-25T20:01:29.401Z,102917.00
2019-02-25T20:04:04.344Z,102920.00
2019-02-25T20:06:31.846Z,102909.00
2019-02-25T20:09:02.225Z,102906.00
2019-02-25T20:11:34.205Z,102911.00
2019-02-25T20:14:04.911Z,102906.00
2019-02-25T20:16:35.283Z,102907.00
2019-02-25T20:19:06.845Z,102913.00
2019-02-25T20:21:37.270Z,102907.00
2019-02-25T20:24:10.264Z,102905.00
2019-02-25T20:26:39.724Z,102905.00
2019-02-25T20:29:11.091Z,102899.00
2019-02-25T20:31:43.423Z,102898.00
2019-02-25T20:34:16.495Z,102891.00
2019-02-25T20:36:47.976Z,102890.00
2019-02-25T20:39:19.083Z,102897.00
2019-02-25T20:41:50.724Z,102898.00
2019-02-25T20:44:22.250Z,102881.00
2019-02-25T20:46:54.994Z,102879.00
2019-02-25T20:49:29.534Z,102882.00
2019-02-25T20:52:01.031Z,102891.00
2019-02-25T20:54:29.907Z,102873.00
2019-02-25T20:57:00.571Z,102879.00
2019-02-25T20:59:32.550Z,102869.00
2019-02-25T21:02:04.801Z,102875.00
2019-02-25T21:04:36.741Z,102883.00
2019-02-25T21:07:08.852Z,102883.00
2019-02-25T21:09:40.518Z,102877.00
2019-02-25T21:12:13.218Z,102880.00
2019-02-25T21:14:44.976Z,102879.00
2019-02-25T21:17:15.584Z,102874.00
2019-02-25T21:19:45.995Z,102865.00
2019-02-25T21:22:16.394Z,102870.00
2019-02-25T21:24:46.818Z,102849.00
2019-02-25T21:27:17.208Z,102857.00
2019-02-25T21:29:47.698Z,102851.00
2019-02-25T21:32:19.972Z,102854.00
2019-02-25T21:34:52.752Z,102855.00
2019-02-25T21:37:23.405Z,102854.00
2019-02-25T21:39:56.100Z,102856.00
2019-02-25T21:42:26.866Z,102841.00
2019-02-25T21:44:59.477Z,102849.00
2019-02-25T21:47:30.905Z,102850.00
2019-02-25T21:50:03.869Z,102855.00
2019-02-25T21:52:35.042Z,102850.00
2019-02-25T21:55:11.498Z,102850.00
2019-02-25T21:58:04.724Z,102828.00
2019-02-25T22:00:38.615Z,102837.00
2019-02-25T22:03:10.887Z,102828.00
2019-02-25T22:05:42.485Z,102831.00
2019-02-25T22:08:12.918Z,102829.00
2019-02-25T22:10:44.138Z,102828.00
2019-02-25T22:13:17.802Z,102828.00
2019-02-25T22:15:47.896Z,102836.00
2019-02-25T22:18:18.336Z,102837.00
2019-02-25T22:20:51.764Z,102836.00
2019-02-25T22:23:25.826Z,102831.00
2019-02-25T22:25:54.516Z,102834.00
2019-02-25T22:28:24.931Z,102841.00
2019-02-25T22:30:58.108Z,102854.00
2019-02-25T22:33:30.400Z,102857.00
2019-02-25T22:36:00.816Z,102849.00
2019-02-25T22:38:31.913Z,102855.00
2019-02-25T22:41:16.197Z,102856.00
2019-02-25T22:43:48.208Z,102853.00
2019-02-25T22:46:19.164Z,102848.00
2019-02-25T22:48:49.712Z,102858.00
2019-02-25T22:51:22.285Z,102870.00
2019-02-25T22:53:54.115Z,102855.00
2019-02-25T22:56:28.080Z,102854.00
2019-02-25T22:59:00.400Z,102851.00
2019-02-25T23:01:31.481Z,102851.00
2019-02-25T23:04:02.202Z,102840.00
2019-02-25T23:06:32.590Z,102851.00
2019-02-25T23:09:02.993Z,102850.00
2019-02-25T23:11:35.087Z,102855.00
2019-02-25T23:14:07.713Z,102841.00
2019-02-25T23:16:39.424Z,102832.00
2019-02-25T23:19:11.996Z,102823.00
2019-02-25T23:21:42.192Z,102817.00
2019-02-25T23:24:12.566Z,102810.00
2019-02-25T23:26:43.243Z,102802.00
2019-02-25T23:29:15.072Z,102791.00
2019-02-25T23:31:46.454Z,102792.00
2019-02-25T23:34:17.990Z,102783.00
2019-02-25T23:36:49.784Z,102781.00
2019-02-25T23:39:21.119Z,102786.00
2019-02-25T23:41:51.500Z,102773.00
2019-02-25T23:44:22.827Z,102776.00
2019-02-25T23:46:57.687Z,102792.00
2019-02-25T23:49:27.616Z,102793.00
2019-02-25T23:51:58.058Z,102794.00
2019-02-25T23:54:28.440Z,102808.00
2019-02-25T23:57:00.144Z,102803.00
2019-02-25T23:59:32.626Z,102800.00
